Time;durP1;ratioP1;P1;durP2;ratioP2;P2;SDS_P1;SDS_P2;PMS_P1;PMS_P2;Temp;Humidity;BMP_temperature;BMP_pressure;BME280_temperature;BME280_humidity;BME280_pressure;Samples;Min_cycle;Max_cycle;Signal;HPM_P1;HPM_P2
2023/06/16 00:01:42;;;;;;;7.10;4.90;;;;;;;24.71;51.86;100111.83;108152;1280;21989;-74
2023/06/16 00:04:08;;;;;;;9.00;4.90;;;;;;;24.69;51.80;100111.94;108188;1282;21990;-61
2023/06/16 00:06:36;;;;;;;9.80;4.70;;;;;;;24.67;52.06;100116.20;108160;1276;21990;-73
2023/06/16 00:09:02;;;;;;;10.60;4.70;;;;;;;24.66;52.01;100117.91;108159;1286;21990;-74
2023/06/16 00:11:28;;;;;;;11.40;4.60;;;;;;;24.64;52.01;100117.98;108165;1286;21985;-74
2023/06/16 00:13:55;;;;;;;6.20;4.70;;;;;;;24.64;52.08;100114.80;108134;1286;21991;-74
2023/06/16 00:16:20;;;;;;;10.90;5.00;;;;;;;24.63;52.17;100110.05;108264;1280;21995;-70
2023/06/16 00:18:53;;;;;;;8.20;4.40;;;;;;;24.61;52.25;100110.21;108153;1286;22005;-74
2023/06/16 00:21:25;;;;;;;9.60;4.40;;;;;;;24.58;52.15;100106.52;108196;1286;22023;-74
2023/06/16 00:23:52;;;;;;;9.20;4.90;;;;;;;24.55;52.28;100105.10;108178;1286;23722;-61
2023/06/16 00:26:17;;;;;;;11.90;4.90;;;;;;;24.53;52.25;100101.84;108186;1286;21996;-73
2023/06/16 00:28:43;;;;;;;9.50;4.60;;;;;;;24.51;52.25;100100.56;108148;1280;22024;-61
2023/06/16 00:31:08;;;;;;;11.10;4.70;;;;;;;24.49;52.25;100099.83;108204;1286;21986;-62
2023/06/16 00:33:34;;;;;;;9.60;4.40;;;;;;;24.48;52.45;100102.93;108147;1283;21990;-61
2023/06/16 00:36:00;;;;;;;8.70;4.30;;;;;;;24.48;52.37;100100.41;108175;1283;21996;-74
2023/06/16 00:38:25;;;;;;;7.60;4.20;;;;;;;24.48;52.28;100099.69;108189;1286;22067;-61
2023/06/16 00:40:51;;;;;;;6.40;4.20;;;;;;;24.46;52.39;100097.01;108133;1286;21996;-61
2023/06/16 00:43:16;;;;;;;8.20;4.10;;;;;;;24.44;52.45;100093.52;108238;1284;21998;-61
2023/06/16 00:45:42;;;;;;;7.50;4.40;;;;;;;24.44;52.74;100096.93;108191;1283;21986;-62
2023/06/16 00:48:08;;;;;;;10.00;4.30;;;;;;;24.44;52.71;100090.84;108229;1281;21978;-73
2023/06/16 00:50:33;;;;;;;9.60;4.50;;;;;;;24.44;52.82;100089.06;108166;1286;21986;-73
2023/06/16 00:52:59;;;;;;;8.50;4.20;;;;;;;24.42;52.92;100085.59;108163;1286;22023;-62
2023/06/16 00:55:25;;;;;;;9.20;4.70;;;;;;;24.42;53.07;100084.02;108172;1279;22026;-74
2023/06/16 00:57:52;;;;;;;9.90;4.20;;;;;;;24.41;53.14;100084.09;108146;1279;21981;-61
2023/06/16 01:00:20;;;;;;;6.40;4.30;;;;;;;24.41;53.05;100085.00;108209;1286;21988;-71
2023/06/16 01:02:46;;;;;;;11.20;4.80;;;;;;;24.40;53.02;100082.55;108177;1286;21955;-72
2023/06/16 01:05:16;;;;;;;7.90;3.90;;;;;;;24.38;53.01;100081.05;108229;1286;22840;-62
2023/06/16 01:07:47;;;;;;;9.60;4.00;;;;;;;24.37;52.99;100082.77;108172;1286;23058;-73
2023/06/16 01:10:18;;;;;;;9.10;4.30;;;;;;;24.36;53.06;100081.58;108209;1278;21993;-61
2023/06/16 01:12:57;;;;;;;10.40;4.40;;;;;;;24.37;53.40;100082.98;108138;1286;22029;-73
2023/06/16 01:15:23;;;;;;;8.80;4.20;;;;;;;24.35;53.28;100083.77;108119;1282;22043;-73
2023/06/16 01:17:50;;;;;;;9.70;4.90;;;;;;;24.33;53.17;100084.46;108139;1287;22004;-61
2023/06/16 01:20:39;;;;;;;9.00;4.40;;;;;;;24.32;53.31;100088.70;107935;1287;22010;-61
2023/06/16 01:23:41;;;;;;;9.00;4.00;;;;;;;24.30;53.35;100086.36;108219;1277;21984;-73
2023/06/16 01:26:07;;;;;;;13.70;4.50;;;;;;;24.27;53.28;100083.30;108140;1287;21989;-61
2023/06/16 01:28:33;;;;;;;10.20;4.30;;;;;;;24.24;53.24;100082.85;108166;1287;21990;-61
2023/06/16 01:31:00;;;;;;;9.30;4.20;;;;;;;24.20;53.20;100084.22;107834;1285;21987;-72
2023/06/16 01:33:26;;;;;;;10.60;4.60;;;;;;;24.16;53.28;100082.38;108181;1286;21990;-62
2023/06/16 01:35:52;;;;;;;9.70;4.50;;;;;;;24.11;53.25;100081.13;108167;1286;21950;-61
2023/06/16 01:38:19;;;;;;;6.80;4.10;;;;;;;24.05;53.25;100078.64;108205;1281;21996;-61
2023/06/16 01:40:44;;;;;;;10.40;4.30;;;;;;;23.99;53.59;100079.80;108200;1286;21995;-62
2023/06/16 01:43:10;;;;;;;11.20;4.80;;;;;;;23.98;53.75;100079.17;107828;1284;21994;-75
2023/06/16 01:45:36;;;;;;;9.10;4.10;;;;;;;23.95;53.64;100077.41;108205;1283;21992;-73
2023/06/16 01:48:02;;;;;;;9.90;4.40;;;;;;;23.91;53.64;100076.39;107861;1286;21989;-60
2023/06/16 01:50:29;;;;;;;10.20;4.00;;;;;;;23.88;53.98;100078.98;108170;1286;22179;-60
2023/06/16 01:52:54;;;;;;;11.20;5.20;;;;;;;23.85;53.94;100083.33;108256;1286;21985;-61
2023/06/16 01:55:20;;;;;;;9.30;4.70;;;;;;;23.81;54.23;100082.52;108244;1280;21989;-73
2023/06/16 01:57:47;;;;;;;7.10;4.20;;;;;;;23.78;54.31;100082.05;108194;1286;21989;-62
2023/06/16 02:00:17;;;;;;;8.60;4.60;;;;;;;23.74;54.46;100085.32;108250;1286;22106;-61
2023/06/16 02:02:48;;;;;;;9.80;4.50;;;;;;;23.72;54.65;100087.99;108228;1286;21986;-61
2023/06/16 02:05:13;;;;;;;11.30;5.00;;;;;;;23.71;54.75;100088.45;108195;1283;21988;-74
2023/06/16 02:07:41;;;;;;;8.90;4.20;;;;;;;23.71;54.86;100085.35;107901;1286;22049;-61
2023/06/16 02:10:07;;;;;;;8.20;4.10;;;;;;;23.73;54.96;100083.64;108211;1286;21987;-65
2023/06/16 02:12:33;;;;;;;9.70;4.40;;;;;;;23.73;54.92;100088.61;108213;1286;21992;-72
2023/06/16 02:15:16;;;;;;;15.80;4.60;;;;;;;23.76;54.92;100088.09;107500;1288;544299;-60
2023/06/16 02:17:45;;;;;;;19.50;5.10;;;;;;;23.76;55.04;100090.08;107652;1290;22052;-73
2023/06/16 02:20:12;;;;;;;14.10;4.30;;;;;;;23.78;55.01;100087.98;107623;1293;21995;-60
2023/06/16 02:22:37;;;;;;;11.80;4.10;;;;;;;23.77;54.87;100088.35;107645;1294;21993;-74
2023/06/16 02:25:03;;;;;;;7.80;4.50;;;;;;;23.79;54.97;100089.29;107684;1290;21994;-74
2023/06/16 02:27:29;;;;;;;8.20;4.70;;;;;;;23.80;55.05;100088.00;107618;1286;22005;-73
2023/06/16 02:29:55;;;;;;;8.30;4.00;;;;;;;23.80;55.10;100090.13;107731;1292;195513;-72
2023/06/16 02:32:21;;;;;;;8.90;4.60;;;;;;;23.81;55.32;100092.02;107753;1289;21993;-61
2023/06/16 02:34:47;;;;;;;11.80;4.20;;;;;;;23.84;55.25;100094.89;107794;1293;21993;-61
2023/06/16 02:37:13;;;;;;;8.00;4.40;;;;;;;23.86;55.38;100095.44;107809;1286;21966;-73
2023/06/16 02:39:39;;;;;;;9.10;5.20;;;;;;;23.86;55.34;100094.33;107870;1293;21994;-72
2023/06/16 02:42:10;;;;;;;12.30;5.00;;;;;;;23.88;55.38;100091.17;107844;1293;21994;-73
2023/06/16 02:44:36;;;;;;;13.20;4.60;;;;;;;23.90;55.53;100092.96;107811;1289;21993;-61
2023/06/16 02:47:03;;;;;;;7.70;5.00;;;;;;;23.93;55.58;100092.58;107767;1292;22001;-60
2023/06/16 02:49:28;;;;;;;8.80;4.80;;;;;;;23.97;55.72;100093.95;107764;1289;21999;-75
2023/06/16 02:51:54;;;;;;;14.10;5.30;;;;;;;24.00;55.83;100096.42;107758;1289;22471;-73
2023/06/16 02:54:22;;;;;;;13.50;4.50;;;;;;;24.05;55.94;100099.63;107940;1293;21996;-74
2023/06/16 02:56:48;;;;;;;15.60;4.90;;;;;;;24.09;55.97;100097.89;107796;1284;22456;-74
2023/06/16 02:59:13;;;;;;;12.50;4.80;;;;;;;24.12;56.14;100096.05;107544;1289;23102;-75
2023/06/16 03:01:39;;;;;;;13.00;5.20;;;;;;;24.16;56.19;100098.80;107479;1289;22003;-62
2023/06/16 03:04:05;;;;;;;15.90;4.90;;;;;;;24.21;56.18;100100.65;107758;1283;21995;-61
2023/06/16 03:06:34;;;;;;;12.40;4.70;;;;;;;24.26;56.64;100102.07;107798;1293;22455;-61
2023/06/16 03:09:03;;;;;;;13.90;5.50;;;;;;;24.31;56.79;100100.25;107814;1292;21991;-74
2023/06/16 03:11:30;;;;;;;13.70;5.10;;;;;;;24.37;56.83;100096.61;107856;1292;21992;-61
2023/06/16 03:13:55;;;;;;;16.10;5.00;;;;;;;24.41;56.90;100096.47;107811;1292;22035;-73
2023/06/16 03:16:23;;;;;;;12.70;4.70;;;;;;;24.45;56.95;100097.79;107818;1286;22003;-61
2023/06/16 03:18:48;;;;;;;13.20;5.50;;;;;;;24.51;57.26;100100.93;107791;1292;22001;-61
2023/06/16 03:21:16;;;;;;;13.20;4.70;;;;;;;24.58;57.34;100094.67;107793;1281;21999;-61
2023/06/16 03:23:43;;;;;;;13.90;5.30;;;;;;;24.65;57.34;100091.96;107795;1283;21977;-73
2023/06/16 03:26:10;;;;;;;11.90;4.90;;;;;;;24.72;57.55;100091.27;107855;1292;22000;-61
2023/06/16 03:28:36;;;;;;;14.70;5.70;;;;;;;24.79;57.45;100092.55;107815;1282;22006;-73
2023/06/16 03:31:01;;;;;;;11.20;6.20;;;;;;;24.86;57.51;100089.51;107794;1289;22002;-61
2023/06/16 03:33:27;;;;;;;13.20;4.70;;;;;;;24.93;57.55;100083.08;107818;1288;21985;-72
2023/06/16 03:35:53;;;;;;;15.60;5.30;;;;;;;25.00;57.70;100084.47;107778;1290;22438;-62
2023/06/16 03:38:20;;;;;;;8.20;5.00;;;;;;;25.07;57.53;100078.77;107843;1292;22000;-61
2023/06/16 03:40:46;;;;;;;11.00;5.30;;;;;;;25.14;57.46;100081.59;107796;1289;21999;-62
2023/06/16 03:43:11;;;;;;;8.00;4.70;;;;;;;25.21;57.50;100081.25;107790;1289;22056;-63
2023/06/16 03:45:37;;;;;;;14.20;5.30;;;;;;;25.28;57.56;100081.80;107868;1289;21990;-61
2023/06/16 03:48:03;;;;;;;13.20;5.50;;;;;;;25.36;57.83;100083.45;107830;1289;21998;-61
2023/06/16 03:50:29;;;;;;;11.70;5.30;;;;;;;25.45;57.91;100083.52;107877;1283;21993;-67
2023/06/16 03:52:55;;;;;;;8.10;4.60;;;;;;;25.53;57.80;100084.50;107809;1289;21990;-61
2023/06/16 03:55:20;;;;;;;7.70;4.30;;;;;;;25.62;57.93;100080.18;107843;1279;21998;-61
2023/06/16 03:57:46;;;;;;;9.30;5.00;;;;;;;25.72;58.18;100081.02;107853;1289;21996;-73
2023/06/16 04:00:12;;;;;;;9.80;4.80;;;;;;;25.82;58.08;100082.54;107810;1289;21992;-74
2023/06/16 04:02:38;;;;;;;9.40;4.60;;;;;;;25.93;58.30;100082.57;107887;1288;21987;-62
2023/06/16 04:05:04;;;;;;;9.00;5.10;;;;;;;26.05;58.44;100085.52;107627;1281;21991;-73
2023/06/16 04:07:32;;;;;;;10.90;5.60;;;;;;;26.19;58.52;100083.39;107818;1289;22006;-66
2023/06/16 04:09:58;;;;;;;9.20;4.70;;;;;;;26.32;58.56;100081.58;107868;1289;21988;-62
2023/06/16 04:12:23;;;;;;;8.90;4.50;;;;;;;26.45;58.34;100081.08;107838;1289;21986;-62
2023/06/16 04:14:49;;;;;;;8.50;4.80;;;;;;;26.56;58.23;100077.21;107814;1286;21995;-61
2023/06/16 04:17:15;;;;;;;10.50;5.00;;;;;;;26.69;58.29;100079.35;107836;1289;22042;-73
2023/06/16 04:19:41;;;;;;;8.30;4.80;;;;;;;26.82;58.25;100078.27;107835;1280;22068;-61
2023/06/16 04:22:06;;;;;;;7.70;5.00;;;;;;;26.95;58.05;100075.23;107804;1289;22012;-66
2023/06/16 04:24:32;;;;;;;9.80;5.20;;;;;;;27.07;57.83;100073.30;107814;1289;22048;-63
2023/06/16 04:26:58;;;;;;;8.10;4.50;;;;;;;27.18;57.75;100070.16;107818;1289;22046;-62
2023/06/16 04:29:26;;;;;;;14.80;4.60;;;;;;;27.31;57.89;100070.27;107829;1289;22009;-62
2023/06/16 04:31:51;;;;;;;8.80;4.20;;;;;;;27.47;57.80;100069.48;107837;1289;22000;-62
2023/06/16 04:34:18;;;;;;;7.40;4.20;;;;;;;27.61;57.28;100070.42;107823;1289;21991;-62
2023/06/16 04:36:44;;;;;;;8.40;4.70;;;;;;;27.75;57.17;100067.73;107874;1286;21994;-71
2023/06/16 04:39:11;;;;;;;10.20;4.40;;;;;;;27.92;57.14;100066.59;107861;1289;21997;-72
2023/06/16 04:41:38;;;;;;;8.10;3.90;;;;;;;28.10;57.09;100071.44;107957;1289;21990;-63
2023/06/16 04:44:04;;;;;;;8.20;4.00;;;;;;;28.26;56.77;100071.46;107798;1286;22307;-72
2023/06/16 04:46:30;;;;;;;12.20;4.40;;;;;;;28.44;56.71;100074.35;107899;1289;22027;-62
2023/06/16 04:48:56;;;;;;;11.90;6.20;;;;;;;28.62;56.55;100075.22;107880;1289;21995;-69
2023/06/16 04:51:22;;;;;;;9.40;4.60;;;;;;;28.80;56.36;100071.38;107786;1289;21987;-70
2023/06/16 04:53:48;;;;;;;8.30;4.10;;;;;;;28.99;55.91;100069.23;107773;1286;21998;-71
2023/06/16 04:56:14;;;;;;;7.80;5.00;;;;;;;29.18;55.74;100067.58;107819;1290;21992;-71
2023/06/16 04:58:41;;;;;;;9.30;4.50;;;;;;;29.36;55.31;100067.34;107767;1290;22013;-71
2023/06/16 05:01:07;;;;;;;11.60;4.50;;;;;;;29.53;54.96;100068.06;107726;1280;21995;-71
2023/06/16 05:03:32;;;;;;;7.40;4.50;;;;;;;29.71;54.73;100065.98;107802;1290;22002;-63
2023/06/16 05:05:59;;;;;;;9.80;4.10;;;;;;;29.89;54.31;100062.95;107776;1284;21993;-62
2023/06/16 05:08:25;;;;;;;9.30;4.40;;;;;;;30.06;53.82;100065.05;107768;1279;21988;-72
2023/06/16 05:10:50;;;;;;;8.70;4.40;;;;;;;30.25;53.79;100062.34;107754;1289;22007;-71
2023/06/16 05:13:16;;;;;;;9.50;4.30;;;;;;;30.43;53.40;100062.67;107729;1290;21997;-72
2023/06/16 05:15:44;;;;;;;6.90;4.20;;;;;;;30.59;53.00;100061.50;107794;1286;22001;-71
2023/06/16 05:18:10;;;;;;;10.90;4.10;;;;;;;30.76;52.92;100061.67;107807;1290;22000;-62
2023/06/16 05:20:36;;;;;;;9.60;4.10;;;;;;;30.95;52.81;100064.96;107771;1289;22006;-71
2023/06/16 05:23:03;;;;;;;7.50;4.30;;;;;;;31.15;52.51;100067.11;107774;1290;22457;-63
2023/06/16 05:25:32;;;;;;;6.40;4.20;;;;;;;31.36;52.22;100066.94;107765;1284;21988;-63
2023/06/16 05:27:58;;;;;;;7.30;4.40;;;;;;;31.56;51.67;100065.36;107761;1286;22006;-70
2023/06/16 05:30:24;;;;;;;9.00;4.40;;;;;;;31.73;51.05;100067.79;107787;1290;21995;-63
2023/06/16 05:32:49;;;;;;;6.10;3.90;;;;;;;31.90;50.93;100071.45;107778;1290;21991;-63
2023/06/16 05:35:15;;;;;;;10.40;4.80;;;;;;;32.11;50.97;100069.15;107838;1290;21986;-69
2023/06/16 05:37:41;;;;;;;8.20;4.20;;;;;;;32.34;50.49;100070.90;107775;1289;21993;-63
2023/06/16 05:40:07;;;;;;;7.00;4.50;;;;;;;32.52;49.85;100067.99;107769;1289;21990;-71
2023/06/16 05:42:33;;;;;;;6.80;4.40;;;;;;;32.70;49.37;100067.46;107872;1286;22459;-63
2023/06/16 05:44:59;;;;;;;8.80;4.20;;;;;;;32.86;49.12;100068.28;107768;1290;21992;-64
2023/06/16 05:47:24;;;;;;;9.90;4.30;;;;;;;33.04;49.01;100068.23;107752;1290;21993;-64
2023/06/16 05:49:50;;;;;;;8.00;4.10;;;;;;;33.25;48.85;100070.88;107757;1290;21993;-63
2023/06/16 05:52:15;;;;;;;9.90;4.60;;;;;;;33.45;48.55;100070.52;107758;1284;22001;-63
2023/06/16 05:54:41;;;;;;;9.30;4.40;;;;;;;33.67;48.29;100066.61;107789;1290;21998;-71
2023/06/16 05:57:07;;;;;;;9.40;4.30;;;;;;;33.86;47.81;100067.58;107756;1285;22000;-63
2023/06/16 05:59:34;;;;;;;7.90;4.20;;;;;;;34.03;47.49;100068.31;107770;1286;21968;-64
2023/06/16 06:02:00;;;;;;;9.20;4.30;;;;;;;34.17;46.83;100065.97;107877;1290;21992;-64
2023/06/16 06:04:27;;;;;;;10.30;4.60;;;;;;;34.36;46.58;100066.31;107762;1289;21984;-72
2023/06/16 06:06:53;;;;;;;8.20;4.50;;;;;;;34.51;45.77;100065.13;107837;1280;21953;-70
2023/06/16 06:09:18;;;;;;;6.60;4.20;;;;;;;34.60;45.51;100066.25;107821;1289;21985;-70
2023/06/16 06:11:44;;;;;;;8.80;3.80;;;;;;;34.78;45.67;100065.88;107866;1283;21994;-70
2023/06/16 06:14:11;;;;;;;7.60;4.00;;;;;;;34.99;45.49;100064.73;107913;1280;21989;-70
2023/06/16 06:16:38;;;;;;;7.50;4.40;;;;;;;35.20;45.18;100062.58;107876;1286;21993;-64
2023/06/16 06:19:04;;;;;;;7.30;3.80;;;;;;;35.42;44.72;100062.42;107964;1289;23618;-65
2023/06/16 06:21:29;;;;;;;10.40;4.10;;;;;;;35.65;44.25;100065.64;107957;1289;21991;-64
2023/06/16 06:23:55;;;;;;;7.80;3.90;;;;;;;35.86;43.97;100067.12;107950;1289;21993;-64
2023/06/16 06:26:25;;;;;;;7.80;3.90;;;;;;;36.05;43.28;100071.01;107912;1287;22023;-72
2023/06/16 06:28:50;;;;;;;7.20;3.50;;;;;;;36.20;42.69;100066.87;108035;1288;22038;-63
2023/06/16 06:31:16;;;;;;;7.60;3.60;;;;;;;36.35;42.31;100066.25;107752;1286;22004;-63
2023/06/16 06:33:42;;;;;;;8.30;3.70;;;;;;;36.49;41.84;100066.31;107711;1286;22004;-69
2023/06/16 06:36:09;;;;;;;4.50;3.20;;;;;;;36.59;41.63;100066.50;109930;1290;22385;-70
2023/06/16 06:38:35;;;;;;;7.90;3.80;;;;;;;36.72;41.53;100066.85;109942;1289;22492;-64
2023/06/16 06:41:01;;;;;;;8.10;3.70;;;;;;;36.91;41.42;100064.94;109940;1289;22209;-66
2023/06/16 06:43:27;;;;;;;6.90;3.60;;;;;;;37.14;40.93;100065.27;108367;1290;21991;-70
2023/06/16 06:45:52;;;;;;;6.00;3.30;;;;;;;37.32;40.48;100064.14;107809;1290;21990;-64
2023/06/16 06:48:18;;;;;;;7.90;3.40;;;;;;;37.45;40.37;100067.61;107800;1289;21998;-70
2023/06/16 06:50:44;;;;;;;7.20;3.80;;;;;;;37.62;40.10;100066.18;107770;1290;23061;-69
2023/06/16 06:53:09;;;;;;;6.50;3.30;;;;;;;37.79;39.78;100062.55;107748;1290;21998;-65
2023/06/16 06:55:35;;;;;;;7.70;3.40;;;;;;;37.94;39.37;100063.56;107805;1290;21993;-66
2023/06/16 06:58:01;;;;;;;6.80;3.50;;;;;;;38.10;39.32;100066.42;107784;1286;21990;-64
2023/06/16 07:00:26;;;;;;;6.70;3.20;;;;;;;38.22;38.89;100065.14;107798;1289;21990;-69
2023/06/16 07:02:52;;;;;;;6.80;3.60;;;;;;;38.34;38.38;100062.02;107818;1289;21991;-65
2023/06/16 07:05:17;;;;;;;6.70;3.70;;;;;;;38.37;37.72;100063.13;107748;1286;22008;-71
2023/06/16 07:07:43;;;;;;;5.90;3.40;;;;;;;38.28;37.37;100066.29;107819;1289;21992;-71
2023/06/16 07:10:10;;;;;;;5.30;3.10;;;;;;;38.22;37.27;100062.94;107842;1288;21992;-69
2023/06/16 07:12:36;;;;;;;6.70;3.30;;;;;;;38.31;37.49;100062.40;107860;1286;22004;-70
2023/06/16 07:15:02;;;;;;;6.70;3.10;;;;;;;38.55;37.40;100063.75;107775;1280;22052;-64
2023/06/16 07:17:30;;;;;;;5.60;3.00;;;;;;;38.84;36.95;100063.36;107879;1280;22001;-65
2023/06/16 07:19:55;;;;;;;6.20;3.40;;;;;;;39.11;36.99;100064.35;107921;1280;21996;-65
2023/06/16 07:22:22;;;;;;;8.40;3.40;;;;;;;39.35;35.70;100060.64;107813;1289;22012;-70
2023/06/16 07:24:48;;;;;;;7.30;3.60;;;;;;;39.54;35.94;100064.08;107785;1290;21992;-65
2023/06/16 07:27:13;;;;;;;11.50;3.20;;;;;;;39.72;35.54;100068.96;107780;1290;21992;-70
2023/06/16 07:29:39;;;;;;;9.70;3.00;;;;;;;39.90;35.33;100068.70;107772;1290;21993;-69
2023/06/16 07:32:06;;;;;;;10.10;3.40;;;;;;;40.15;35.42;100065.18;107753;1286;21996;-64
2023/06/16 07:34:32;;;;;;;7.40;3.30;;;;;;;40.39;35.21;100065.23;107850;1290;22000;-63
2023/06/16 07:36:58;;;;;;;5.00;2.80;;;;;;;40.54;35.02;100066.39;107850;1290;22005;-68
2023/06/16 07:39:24;;;;;;;7.20;3.00;;;;;;;40.70;34.21;100066.36;107782;1290;21996;-63
2023/06/16 07:41:49;;;;;;;7.90;2.80;;;;;;;40.70;33.94;100071.66;107821;1279;22002;-68
2023/06/16 07:44:15;;;;;;;7.80;3.80;;;;;;;40.77;33.57;100074.41;107845;1290;21995;-64
2023/06/16 07:46:45;;;;;;;6.40;3.00;;;;;;;40.75;33.14;100077.77;107760;1289;22079;-69
2023/06/16 07:49:14;;;;;;;;;;;;;;;40.75;33.55;100074.55;107825;1286;21982;-68
2023/06/16 07:51:40;;;;;;;8.60;3.90;;;;;;;40.90;32.87;100069.48;107844;1289;21992;-64
2023/06/16 07:54:07;;;;;;;8.20;3.00;;;;;;;40.91;32.79;100071.94;107853;1287;22000;-68
2023/06/16 07:56:32;;;;;;;7.00;2.60;;;;;;;41.00;32.98;100074.04;107803;1284;22177;-63
2023/06/16 07:58:58;;;;;;;12.50;3.10;;;;;;;41.18;32.84;100073.84;107839;1289;22053;-68
2023/06/16 08:01:23;;;;;;;6.00;2.70;;;;;;;41.32;32.86;100076.23;107785;1285;21976;-68
2023/06/16 08:03:49;;;;;;;6.90;3.40;;;;;;;41.51;32.51;100076.65;107800;1289;22173;-64
2023/06/16 08:06:15;;;;;;;6.30;2.90;;;;;;;41.70;32.49;100075.38;107790;1289;21999;-64
2023/06/16 08:08:41;;;;;;;9.40;3.10;;;;;;;41.86;31.80;100073.12;107849;1289;21999;-65
2023/06/16 08:11:07;;;;;;;5.40;3.00;;;;;;;41.83;30.44;100067.52;107855;1289;21990;-69
2023/06/16 08:13:33;;;;;;;7.70;3.10;;;;;;;41.73;30.99;100075.29;107826;1289;22002;-64
2023/06/16 08:15:59;;;;;;;7.80;3.10;;;;;;;41.84;31.41;100075.43;107864;1289;22060;-69
2023/06/16 08:18:25;;;;;;;7.50;3.00;;;;;;;42.03;31.41;100070.77;107846;1289;21992;-69
2023/06/16 08:20:51;;;;;;;6.20;2.80;;;;;;;42.26;31.31;100073.59;107849;1289;21990;-68
2023/06/16 08:23:17;;;;;;;5.10;3.00;;;;;;;42.44;30.64;100072.36;107872;1289;22006;-71
2023/06/16 08:25:45;;;;;;;8.20;2.90;;;;;;;42.52;30.48;100067.40;107734;1289;21988;-66
2023/06/16 08:28:11;;;;;;;4.80;2.80;;;;;;;42.68;30.98;100066.69;107933;1283;23071;-64
2023/06/16 08:30:37;;;;;;;7.70;3.70;;;;;;;42.94;30.72;100068.69;107749;1289;21996;-68
2023/06/16 08:33:16;;;;;;;11.60;3.10;;;;;;;43.20;30.68;100069.27;107715;1289;21980;-64
2023/06/16 08:35:42;;;;;;;8.20;3.30;;;;;;;43.43;30.31;100067.41;107685;1290;22018;-69
2023/06/16 08:38:08;;;;;;;6.00;3.10;;;;;;;43.47;30.04;100065.38;107701;1284;22030;-64
2023/06/16 08:40:35;;;;;;;9.20;2.90;;;;;;;43.47;29.89;100064.71;107930;1282;22027;-64
2023/06/16 08:43:03;;;;;;;4.60;2.60;;;;;;;43.58;29.91;100063.42;108238;1279;23660;-63
2023/06/16 08:45:30;;;;;;;6.70;3.20;;;;;;;43.77;29.88;100067.64;108049;1289;24322;-65
2023/06/16 08:47:56;;;;;;;8.10;3.70;;;;;;;43.88;29.49;100064.81;108019;1289;21992;-64
2023/06/16 08:50:23;;;;;;;6.60;2.50;;;;;;;43.97;29.47;100064.48;108046;1289;21996;-65
2023/06/16 08:52:51;;;;;;;5.50;2.40;;;;;;;44.03;29.54;100064.92;107833;1289;22458;-64
2023/06/16 08:55:16;;;;;;;8.20;3.00;;;;;;;44.24;29.31;100059.98;107847;1286;21992;-64
2023/06/16 08:57:47;;;;;;;5.80;2.80;;;;;;;44.17;28.33;100054.10;107961;1289;21993;-66
2023/06/16 09:00:14;;;;;;;4.70;2.80;;;;;;;44.00;28.58;100050.10;107993;1289;21991;-64
2023/06/16 09:02:41;;;;;;;5.80;2.80;;;;;;;44.09;28.74;100048.36;108010;1289;22026;-64
2023/06/16 09:05:10;;;;;;;7.30;2.80;;;;;;;44.28;28.64;100046.13;107911;1283;21992;-65
2023/06/16 09:07:39;;;;;;;6.10;2.80;;;;;;;44.44;28.32;100042.64;108045;1289;21992;-66
2023/06/16 09:10:06;;;;;;;7.90;2.90;;;;;;;44.52;28.18;100042.05;108021;1288;23612;-64
2023/06/16 09:12:31;;;;;;;8.90;3.20;;;;;;;44.64;28.13;100034.74;107992;1288;23022;-64
2023/06/16 09:14:57;;;;;;;5.20;2.90;;;;;;;44.82;27.78;100034.96;107897;1287;21995;-64
2023/06/16 09:17:30;;;;;;;7.90;3.50;;;;;;;44.97;27.37;100036.57;107808;1289;22029;-65
2023/06/16 09:19:56;;;;;;;7.80;3.50;;;;;;;44.92;26.90;100031.11;107705;1289;21986;-63
2023/06/16 09:22:25;;;;;;;5.10;2.90;;;;;;;44.85;27.34;100029.51;107908;1289;22008;-62
2023/06/16 09:24:55;;;;;;;8.70;3.50;;;;;;;44.92;27.29;100025.89;107826;1288;22029;-68
2023/06/16 09:27:23;;;;;;;6.40;3.10;;;;;;;45.06;27.46;100029.80;107728;1289;21992;-63
2023/06/16 09:29:58;;;;;;;7.00;2.90;;;;;;;45.25;27.38;100033.01;107734;1289;21987;-69
2023/06/16 09:32:25;;;;;;;9.50;3.00;;;;;;;45.41;27.26;100032.50;107688;1286;22002;-64
2023/06/16 09:34:51;;;;;;;3.40;2.00;;;;;;;45.52;27.13;100034.39;107813;1289;21994;-63
2023/06/16 09:37:19;;;;;;;7.60;3.20;;;;;;;45.64;26.91;100030.52;107916;1289;23637;-64
2023/06/16 09:39:46;;;;;;;7.60;3.60;;;;;;;45.81;26.79;100025.66;107845;1289;22532;-63
2023/06/16 09:42:12;;;;;;;6.10;2.70;;;;;;;45.98;26.41;100025.52;107857;1289;21990;-64
2023/06/16 09:44:39;;;;;;;9.10;3.20;;;;;;;46.07;25.62;100026.91;107824;1289;22078;-63
2023/06/16 09:47:06;;;;;;;10.10;3.50;;;;;;;45.70;24.39;100029.30;107951;1289;23821;-64
2023/06/16 09:49:33;;;;;;;6.30;3.40;;;;;;;45.12;24.90;100024.11;107967;1286;21998;-64
2023/06/16 09:51:59;;;;;;;7.50;3.00;;;;;;;44.80;24.67;100022.88;107937;1289;21982;-63
2023/06/16 09:54:26;;;;;;;6.80;3.20;;;;;;;44.72;25.85;100024.58;108020;1289;21990;-63
2023/06/16 09:56:55;;;;;;;5.70;2.70;;;;;;;44.91;25.81;100023.92;107976;1289;21995;-64
2023/06/16 09:59:21;;;;;;;7.00;2.60;;;;;;;45.14;26.00;100016.20;108020;1288;21987;-63
2023/06/16 10:01:47;;;;;;;7.90;2.90;;;;;;;45.41;25.70;100014.31;109368;1286;21984;-65
2023/06/16 10:04:15;;;;;;;4.70;2.70;;;;;;;45.63;25.57;100010.05;108135;1288;21986;-68
2023/06/16 10:06:56;;;;;;;6.10;3.00;;;;;;;45.86;25.78;100005.75;108167;1286;22464;-63
2023/06/16 10:09:28;;;;;;;6.10;3.40;;;;;;;46.13;25.66;100000.39;108536;1286;23056;-63
2023/06/16 10:11:56;;;;;;;9.20;3.50;;;;;;;46.43;25.71;100002.17;108137;1283;22034;-63
2023/06/16 10:14:25;;;;;;;6.60;2.70;;;;;;;46.73;25.48;100002.44;107782;1288;21983;-63
2023/06/16 10:16:51;;;;;;;5.30;2.70;;;;;;;46.88;24.90;100001.38;108146;1288;21997;-62
2023/06/16 10:19:17;;;;;;;5.90;2.80;;;;;;;46.80;24.83;99997.92;107771;1288;22037;-68
2023/06/16 10:21:42;;;;;;;8.00;2.80;;;;;;;46.48;24.71;99996.88;107727;1285;21990;-69
2023/06/16 10:24:08;;;;;;;5.90;2.50;;;;;;;46.19;24.74;99993.27;107711;1288;21994;-63
2023/06/16 10:26:34;;;;;;;7.10;2.80;;;;;;;45.99;24.49;99991.52;107945;1288;21990;-64
2023/06/16 10:29:00;;;;;;;8.00;3.20;;;;;;;45.69;24.60;99992.25;107681;1288;22076;-71
2023/06/16 10:31:27;;;;;;;5.00;2.70;;;;;;;45.36;24.67;99993.14;107883;1288;22026;-70
2023/06/16 10:33:57;;;;;;;8.30;2.90;;;;;;;45.11;24.73;99989.94;108123;1285;21992;-71
2023/06/16 10:36:29;;;;;;;;;;;;;;;44.88;24.35;99983.31;108125;1288;21978;-64
2023/06/16 10:39:13;;;;;;;10.30;3.30;;;;;;;44.80;24.14;99982.03;108052;1288;21995;-63
2023/06/16 10:41:51;;;;;;;6.40;2.90;;;;;;;44.80;24.38;99976.59;108069;1288;21987;-70
2023/06/16 10:44:27;;;;;;;5.40;2.90;;;;;;;44.98;24.65;99975.95;108064;1288;21990;-70
2023/06/16 10:47:05;;;;;;;10.70;3.10;;;;;;;45.33;24.74;99975.48;108132;1286;22033;-69
2023/06/16 10:49:31;;;;;;;5.70;2.70;;;;;;;45.71;24.28;99970.14;108098;1286;21996;-69
2023/06/16 10:51:58;;;;;;;6.80;2.60;;;;;;;46.03;24.21;99967.92;108139;1288;21990;-61
2023/06/16 10:54:33;;;;;;;6.70;3.10;;;;;;;46.33;24.09;99967.59;108132;1277;23480;-67
2023/06/16 10:57:06;;;;;;;5.30;2.60;;;;;;;46.45;23.33;99962.85;108050;1286;22185;-64
2023/06/16 10:59:54;;;;;;;4.90;2.70;;;;;;;46.26;23.58;99960.00;108096;1280;21981;-67
2023/06/16 11:02:21;;;;;;;6.80;2.50;;;;;;;46.42;23.89;99953.60;108079;1283;21994;-68
2023/06/16 11:05:12;;;;;;;5.20;2.70;;;;;;;46.80;23.69;99948.81;108162;1283;21985;-61
2023/06/16 11:08:08;;;;;;;6.20;2.80;;;;;;;47.22;23.40;99947.49;108170;1286;22460;-62
2023/06/16 11:10:49;;;;;;;8.60;3.50;;;;;;;47.55;23.18;99947.19;108143;1287;22003;-67
2023/06/16 11:13:16;;;;;;;6.20;2.90;;;;;;;47.67;23.05;99941.59;108116;1288;21999;-61
2023/06/16 11:15:42;;;;;;;7.00;3.20;;;;;;;47.75;21.87;99939.25;108112;1288;21992;-68
2023/06/16 11:18:09;;;;;;;5.50;2.70;;;;;;;47.58;21.95;99936.88;108159;1288;21995;-61